Habersham County Airport


Codes: KAJR/
Name: Habersham County Airport
City: Cornelia
Country: United States
Elevation: 1448 ft.

Photos at Habersham County Airport


   Photos courtesy of SpottingLog. You can add your own sightings and photos by signing up for a free trial today.



No photos found.

Weather at Habersham County Airport


Time (UTC)DescriptionTempratureWindCloud coverageVisibilityPressureHumidity
16-Jun-2024 12:00Scattered Clouds22°C7 mph, NE27%10000m1019hPa83%
16-Jun-2024 15:00Few Clouds26°C7 mph, E13%10000m1019hPa66%
16-Jun-2024 18:00Light Rain33°C4 mph, NE4%10000m1018hPa42%
16-Jun-2024 21:00Broken Clouds30°C4 mph, SE70%10000m1017hPa48%
17-Jun-2024 00:00Scattered Clouds27°C2 mph, SE30%10000m1017hPa63%
17-Jun-2024 03:00Light Rain22°C4 mph, NE100%10000m1020hPa78%
17-Jun-2024 06:00Light Rain20°C4 mph, NE100%10000m1021hPa97%
17-Jun-2024 09:00Light Rain20°C4 mph, NE100%10000m1021hPa98%
17-Jun-2024 12:00Overcast Clouds21°C4 mph, NE91%10000m1022hPa94%
17-Jun-2024 15:00Broken Clouds27°C4 mph, SE78%10000m1022hPa62%
17-Jun-2024 18:00Light Rain29°C7 mph, SE88%10000m1020hPa54%
17-Jun-2024 21:00Light Rain25°C4 mph, SE100%10000m1020hPa80%
18-Jun-2024 00:00Light Rain23°C4 mph, N100%10000m1019hPa88%
18-Jun-2024 03:00Overcast Clouds22°C4 mph, NE100%10000m1020hPa86%
18-Jun-2024 06:00Overcast Clouds20°C4 mph, E100%10000m1021hPa95%
18-Jun-2024 09:00Overcast Clouds18°C4 mph, NE98%10000m1022hPa87%
18-Jun-2024 12:00Overcast Clouds19°C7 mph, NE99%10000m1023hPa81%
18-Jun-2024 15:00Overcast Clouds25°C11 mph, E100%10000m1022hPa56%
18-Jun-2024 18:00Overcast Clouds29°C11 mph, E99%10000m1021hPa38%
18-Jun-2024 21:00Overcast Clouds30°C11 mph, SE100%10000m1020hPa32%
19-Jun-2024 00:00Overcast Clouds24°C4 mph, E100%10000m1020hPa55%
19-Jun-2024 03:00Overcast Clouds21°C7 mph, NE100%10000m1022hPa59%
19-Jun-2024 06:00Overcast Clouds18°C4 mph, NE96%10000m1023hPa71%
19-Jun-2024 09:00Overcast Clouds17°C7 mph, NE100%10000m1024hPa78%
19-Jun-2024 12:00Overcast Clouds19°C7 mph, NE95%10000m1025hPa77%
19-Jun-2024 15:00Overcast Clouds25°C11 mph, E100%10000m1025hPa53%
19-Jun-2024 18:00Overcast Clouds29°C11 mph, E91%10000m1023hPa39%
19-Jun-2024 21:00Overcast Clouds29°C13 mph, E100%10000m1022hPa38%
20-Jun-2024 00:00Overcast Clouds24°C4 mph, N97%10000m1022hPa61%
20-Jun-2024 03:00Overcast Clouds23°C7 mph, NE97%10000m1023hPa57%
20-Jun-2024 06:00Broken Clouds19°C4 mph, NE78%10000m1024hPa72%
20-Jun-2024 09:00Clear Sky17°C4 mph, NE1%10000m1025hPa84%
20-Jun-2024 12:00Clear Sky19°C7 mph, NE1%10000m1026hPa78%
20-Jun-2024 15:00Few Clouds25°C13 mph, E12%10000m1025hPa50%
20-Jun-2024 18:00Clear Sky29°C11 mph, E6%10000m1024hPa32%
20-Jun-2024 21:00Clear Sky31°C11 mph, E0%10000m1022hPa29%
21-Jun-2024 00:00Few Clouds25°C7 mph, E16%10000m1022hPa62%
21-Jun-2024 03:00Broken Clouds24°C9 mph, E62%10000m1023hPa65%
21-Jun-2024 06:00Broken Clouds21°C9 mph, E63%10000m1024hPa89%
21-Jun-2024 09:00Light Rain20°C7 mph, NE72%10000m1024hPa98%